Time;durP1;ratioP1;P1;durP2;ratioP2;P2;SDS_P1;SDS_P2;PMS_P1;PMS_P2;Temp;Humidity;BMP_temperature;BMP_pressure;BME280_temperature;BME280_humidity;BME280_pressure;Samples;Min_cycle;Max_cycle;Signal;HPM_P1;HPM_P2
2022/09/13 00:01:47;;;;;;;1999.90;999.90;;;14.80;99.90;;;;;;5292262;27;20023;-73
2022/09/13 00:04:18;;;;;;;1999.90;999.90;;;14.60;99.90;;;;;;5308931;27;20031;-73
2022/09/13 00:06:49;;;;;;;1999.90;999.90;;;14.20;99.90;;;;;;5308547;27;20061;-73
2022/09/13 00:09:19;;;;;;;1999.90;999.90;;;14.50;99.90;;;;;;5290170;28;20023;-73
2022/09/13 00:11:50;;;;;;;1999.90;999.90;;;14.60;99.90;;;;;;5290816;28;20467;-73
2022/09/13 00:14:21;;;;;;;1999.90;999.90;;;14.40;99.90;;;;;;5290585;28;20063;-73
2022/09/13 00:16:52;;;;;;;1999.90;999.90;;;14.30;99.90;;;;;;5290681;28;20028;-73
2022/09/13 00:19:23;;;;;;;1999.90;999.90;;;14.50;99.90;;;;;;5291141;28;20024;-72
2022/09/13 00:21:53;;;;;;;1999.90;999.90;;;14.40;99.90;;;;;;5290327;28;20102;-73
2022/09/13 00:24:24;;;;;;;1999.90;999.90;;;14.40;99.90;;;;;;5290584;28;20075;-72
2022/09/13 00:26:55;;;;;;;1999.90;999.90;;;14.30;99.90;;;;;;5290688;28;20028;-73
2022/09/13 00:29:26;;;;;;;1999.90;999.90;;;14.30;99.90;;;;;;5289454;28;20023;-73
2022/09/13 00:31:57;;;;;;;1999.90;999.90;;;14.40;99.90;;;;;;5289516;28;20776;-72
2022/09/13 00:34:28;;;;;;;1999.90;999.90;;;14.00;99.90;;;;;;5290568;28;20038;-72
2022/09/13 00:36:59;;;;;;;1999.90;999.90;;;14.30;99.90;;;;;;5290221;28;20068;-73
2022/09/13 00:39:30;;;;;;;1999.90;999.90;;;14.20;99.90;;;;;;5290287;28;20031;-73
2022/09/13 00:42:01;;;;;;;1999.90;999.90;;;14.30;99.90;;;;;;5290089;28;20034;-72
2022/09/13 00:44:59;;;;;;;1999.90;999.90;;;14.20;99.90;;;;;;5289953;28;20079;-73
2022/09/13 00:47:33;;;;;;;1999.90;999.90;;;14.30;99.90;;;;;;5290144;28;20020;-73
2022/09/13 00:50:16;;;;;;;1999.90;999.90;;;14.30;99.90;;;;;;5290292;28;20020;-73
2022/09/13 00:52:53;;;;;;;1999.90;999.90;;;14.20;99.90;;;;;;5290151;28;20479;-73
2022/09/13 00:55:33;;;;;;;1999.90;999.90;;;14.00;99.90;;;;;;5289960;28;20449;-73
2022/09/13 00:58:11;;;;;;;1999.90;999.90;;;14.00;99.90;;;;;;5290018;28;20038;-73
2022/09/13 01:00:43;;;;;;;1999.90;999.90;;;14.20;99.90;;;;;;5290100;28;20026;-73
2022/09/13 01:03:16;;;;;;;1999.90;999.90;;;14.20;99.90;;;;;;5289751;28;20031;-73
2022/09/13 01:06:05;;;;;;;1999.90;999.90;;;14.20;99.90;;;;;;5289910;28;20024;-73
2022/09/13 01:08:39;;;;;;;1999.90;999.90;;;14.40;99.90;;;;;;5290045;28;20015;-73
2022/09/13 01:11:18;;;;;;;1999.90;999.90;;;14.30;99.90;;;;;;5289937;28;20030;-73
2022/09/13 01:13:50;;;;;;;1999.90;999.90;;;14.00;99.90;;;;;;5289914;28;20122;-73
2022/09/13 01:16:21;;;;;;;1999.90;999.90;;;14.40;99.90;;;;;;5289928;28;20023;-73
2022/09/13 01:18:51;;;;;;;1999.90;999.90;;;14.30;99.90;;;;;;5289940;28;20428;-73
2022/09/13 01:21:50;;;;;;;1999.90;999.90;;;13.90;99.90;;;;;;5294021;28;20077;-73
2022/09/13 01:24:48;;;;;;;1999.90;999.90;;;13.90;99.90;;;;;;5302790;27;20027;-73
2022/09/13 01:27:24;;;;;;;1999.90;999.90;;;14.00;99.90;;;;;;5315397;27;20027;-73
2022/09/13 01:30:13;;;;;;;1999.90;999.90;;;14.20;99.90;;;;;;5315446;27;20394;-73
2022/09/13 01:32:58;;;;;;;1999.90;999.90;;;14.10;99.90;;;;;;5315513;27;20015;-73
2022/09/13 01:35:41;;;;;;;1999.90;999.90;;;14.20;99.90;;;;;;5314187;27;20075;-73
2022/09/13 01:38:40;;;;;;;1999.90;999.90;;;13.80;99.90;;;;;;5314249;27;20026;-73
2022/09/13 01:41:16;;;;;;;1999.90;999.90;;;13.90;99.90;;;;;;5314119;27;20042;-73
2022/09/13 01:44:24;;;;;;;1999.90;999.90;;;14.00;99.90;;;;;;5315083;27;20035;-73
2022/09/13 01:46:55;;;;;;;1999.90;999.90;;;13.90;99.90;;;;;;5300140;27;20031;-73
2022/09/13 01:49:29;;;;;;;1999.90;999.90;;;13.90;99.90;;;;;;5293958;28;20034;-73
2022/09/13 01:52:15;;;;;;;1999.90;999.90;;;13.90;99.90;;;;;;5292527;28;20035;-73
2022/09/13 01:55:02;;;;;;;1999.90;999.90;;;13.80;99.90;;;;;;5293881;28;20028;-73
2022/09/13 01:57:45;;;;;;;1999.90;999.90;;;13.70;99.90;;;;;;5292562;28;20019;-73
2022/09/13 02:00:17;;;;;;;1999.90;999.90;;;13.80;99.90;;;;;;5293904;27;20016;-73
2022/09/13 02:02:59;;;;;;;1999.90;999.90;;;13.70;99.90;;;;;;5293454;28;20031;-73
2022/09/13 02:05:42;;;;;;;1999.90;999.90;;;13.90;99.90;;;;;;5293724;28;20036;-73
2022/09/13 02:08:18;;;;;;;1999.90;999.90;;;14.00;99.90;;;;;;5292226;28;20180;-73
2022/09/13 02:10:54;;;;;;;1999.90;999.90;;;13.70;99.90;;;;;;5293105;28;20032;-73
2022/09/13 02:13:31;;;;;;;1999.90;999.90;;;13.60;99.90;;;;;;5292936;28;20055;-73
2022/09/13 02:16:11;;;;;;;1999.90;999.90;;;13.50;99.90;;;;;;5293243;28;20030;-73
2022/09/13 02:18:49;;;;;;;1999.90;999.90;;;13.40;99.90;;;;;;5293373;28;20024;-73
2022/09/13 02:21:25;;;;;;;1999.90;999.90;;;13.40;99.90;;;;;;5291650;28;20028;-73
2022/09/13 02:24:06;;;;;;;1999.90;999.90;;;13.30;99.90;;;;;;5291735;28;20039;-73
2022/09/13 02:26:39;;;;;;;1999.90;999.90;;;13.50;99.90;;;;;;5292989;28;20050;-73
2022/09/13 02:29:16;;;;;;;1999.90;999.90;;;13.70;99.90;;;;;;5292914;28;20100;-73
2022/09/13 02:31:54;;;;;;;1999.90;999.90;;;13.70;99.90;;;;;;5292092;27;20019;-73
2022/09/13 02:34:35;;;;;;;1999.90;999.90;;;13.60;99.90;;;;;;5292606;28;20035;-73
2022/09/13 02:37:08;;;;;;;1999.90;999.90;;;13.60;99.90;;;;;;5292797;28;20023;-73
2022/09/13 02:39:51;;;;;;;1999.90;999.90;;;13.50;99.90;;;;;;5292713;28;20461;-73
2022/09/13 02:42:28;;;;;;;1999.90;999.90;;;13.30;99.90;;;;;;5291529;28;20720;-73
2022/09/13 02:44:59;;;;;;;1999.90;999.90;;;13.30;99.90;;;;;;5291345;28;20096;-73
2022/09/13 02:47:52;;;;;;;1999.90;999.90;;;13.40;99.90;;;;;;5291111;28;20514;-73
2022/09/13 02:51:10;;;;;;;1999.90;999.90;;;13.30;99.90;;;;;;5292715;28;20073;-73
2022/09/13 02:53:52;;;;;;;1999.90;999.90;;;13.10;99.90;;;;;;5248295;28;20033;-73
2022/09/13 02:56:52;;;;;;;1999.90;999.90;;;13.30;99.90;;;;;;5285552;28;20111;-73
2022/09/13 02:59:24;;;;;;;1999.90;999.90;;;13.00;99.90;;;;;;5292923;28;20494;-73
2022/09/13 03:02:10;;;;;;;1999.90;999.90;;;13.00;99.90;;;;;;5292355;28;20475;-73
2022/09/13 03:04:41;;;;;;;1999.90;999.90;;;13.20;99.90;;;;;;5292392;28;20028;-73
2022/09/13 03:07:13;;;;;;;1999.90;999.90;;;13.10;99.90;;;;;;5292277;28;20028;-73
2022/09/13 03:09:58;;;;;;;1999.90;999.90;;;13.00;99.90;;;;;;5291218;28;20024;-73
2022/09/13 03:12:49;;;;;;;1999.90;999.90;;;13.10;99.90;;;;;;5292069;28;20039;-73
2022/09/13 03:15:30;;;;;;;1999.90;999.90;;;13.20;99.90;;;;;;5292312;28;20063;-73
2022/09/13 03:18:19;;;;;;;;;;;12.90;99.90;;;;;;5291600;28;20201;-73
2022/09/13 03:21:15;;;;;;;1999.90;999.90;;;12.80;99.90;;;;;;5292115;28;19910;-73
2022/09/13 03:23:57;;;;;;;1999.90;999.90;;;13.00;99.90;;;;;;5291912;28;20042;-73
2022/09/13 03:27:09;;;;;;;1999.90;999.90;;;12.90;99.90;;;;;;5292217;28;20058;-73
2022/09/13 03:30:07;;;;;;;1999.90;999.90;;;12.80;99.90;;;;;;5292035;28;20031;-73
2022/09/13 03:32:49;;;;;;;1999.90;999.90;;;12.80;99.90;;;;;;5291732;28;20069;-73
2022/09/13 03:35:36;;;;;;;1999.90;999.90;;;12.80;99.90;;;;;;5290532;28;20020;-73
2022/09/13 03:38:10;;;;;;;1999.90;999.90;;;13.00;99.90;;;;;;5291911;28;20050;-73
2022/09/13 03:40:51;;;;;;;1999.90;999.90;;;12.90;99.90;;;;;;5291859;28;20031;-73
2022/09/13 03:43:45;;;;;;;1999.90;999.90;;;13.00;99.90;;;;;;5290267;28;20037;-73
2022/09/13 03:46:44;;;;;;;1999.90;999.90;;;12.90;99.90;;;;;;5283762;28;20079;-73
2022/09/13 03:49:17;;;;;;;1999.90;999.90;;;13.00;99.90;;;;;;5290419;28;20024;-73
2022/09/13 03:51:51;;;;;;;1999.90;999.90;;;12.70;99.90;;;;;;5290005;28;20028;-73
2022/09/13 03:54:26;;;;;;;1999.90;999.90;;;12.60;99.90;;;;;;5291671;28;20106;-73
2022/09/13 03:57:21;;;;;;;1999.90;999.90;;;12.60;99.90;;;;;;5291383;28;20028;-73
2022/09/13 03:59:55;;;;;;;1999.90;999.90;;;12.60;99.90;;;;;;5291476;28;20108;-73
2022/09/13 04:02:26;;;;;;;1999.90;999.90;;;12.60;99.90;;;;;;5289782;28;20024;-73
2022/09/13 04:04:57;;;;;;;1999.90;999.90;;;12.40;99.90;;;;;;5289738;28;20036;-73
2022/09/13 04:07:28;;;;;;;1999.90;999.90;;;12.50;99.90;;;;;;5289935;28;20026;-73
2022/09/13 04:10:00;;;;;;;1999.90;999.90;;;12.50;99.90;;;;;;5291293;28;20026;-73
2022/09/13 04:12:30;;;;;;;1999.90;999.90;;;12.50;99.90;;;;;;5291129;28;20102;-73
2022/09/13 04:15:01;;;;;;;1999.90;999.90;;;12.50;99.90;;;;;;5290924;28;20138;-73
2022/09/13 04:17:32;;;;;;;1999.90;999.90;;;12.50;99.90;;;;;;5289572;28;20020;-73
2022/09/13 04:20:04;;;;;;;1999.90;999.90;;;12.60;99.90;;;;;;5290771;28;20055;-73
2022/09/13 04:22:35;;;;;;;1999.90;999.90;;;12.40;99.90;;;;;;5295729;27;20019;-73
2022/09/13 04:25:06;;;;;;;1999.90;999.90;;;12.30;99.90;;;;;;5310543;27;20038;-73
2022/09/13 04:27:37;;;;;;;1999.90;999.90;;;12.20;99.90;;;;;;5311689;27;20076;-73
2022/09/13 04:30:08;;;;;;;1999.90;999.90;;;12.30;99.90;;;;;;5312284;27;20416;-73
2022/09/13 04:32:42;;;;;;;1999.90;999.90;;;12.40;99.90;;;;;;5311996;27;20090;-73
2022/09/13 04:35:13;;;;;;;1999.90;999.90;;;12.60;99.90;;;;;;5311825;27;20023;-73
2022/09/13 04:37:45;;;;;;;1999.90;999.90;;;12.80;99.90;;;;;;5310545;27;20023;-73
2022/09/13 04:40:16;;;;;;;1999.90;999.90;;;12.70;99.90;;;;;;5310299;27;20027;-73
2022/09/13 04:42:46;;;;;;;1999.90;999.90;;;12.70;99.90;;;;;;5311554;27;20039;-73
2022/09/13 04:45:17;;;;;;;1999.90;999.90;;;12.90;99.90;;;;;;5311594;27;20065;-73
2022/09/13 04:47:55;;;;;;;1999.90;999.90;;;12.80;99.90;;;;;;5307239;27;20023;-73
2022/09/13 04:50:26;;;;;;;1999.90;999.90;;;13.10;99.90;;;;;;5301444;27;20034;-73
2022/09/13 04:52:57;;;;;;;1999.90;999.90;;;13.00;99.90;;;;;;5305769;27;20015;-73
2022/09/13 04:55:27;;;;;;;1999.90;999.90;;;13.30;99.90;;;;;;5311230;27;20535;-73
2022/09/13 04:57:58;;;;;;;1999.90;999.90;;;13.30;99.90;;;;;;5310612;27;20088;-74
2022/09/13 05:00:30;;;;;;;1999.90;999.90;;;13.30;99.90;;;;;;5306954;27;20069;-73
2022/09/13 05:03:01;;;;;;;1999.90;999.90;;;13.50;99.90;;;;;;5307256;27;20484;-74
2022/09/13 05:05:31;;;;;;;1999.90;999.90;;;13.70;99.90;;;;;;5303203;27;20027;-73
2022/09/13 05:08:02;;;;;;;1999.90;999.90;;;13.70;99.90;;;;;;5290126;28;20035;-73
2022/09/13 05:10:33;;;;;;;1999.90;999.90;;;13.70;99.90;;;;;;5303662;28;20023;-73
2022/09/13 05:13:04;;;;;;;1999.90;999.90;;;13.90;99.90;;;;;;5298458;27;20047;-73
2022/09/13 05:15:37;;;;;;;1999.90;999.90;;;14.00;99.90;;;;;;5289983;28;20089;-73
2022/09/13 05:18:07;;;;;;;1999.90;999.90;;;14.10;99.90;;;;;;5304040;28;20015;-73
2022/09/13 05:20:38;;;;;;;1999.90;999.90;;;14.50;99.90;;;;;;5289799;28;20413;-73
2022/09/13 05:23:09;;;;;;;1999.90;999.90;;;14.60;99.90;;;;;;5301352;28;20408;-73
2022/09/13 05:25:40;;;;;;;1999.90;999.90;;;14.70;99.90;;;;;;5299750;27;20027;-73
2022/09/13 05:28:10;;;;;;;1999.90;999.90;;;14.70;99.90;;;;;;5310729;27;20923;-73
2022/09/13 05:30:41;;;;;;;1999.90;999.90;;;15.00;99.90;;;;;;5310879;27;20080;-73
2022/09/13 05:33:12;;;;;;;1999.90;999.90;;;15.30;99.90;;;;;;5310890;27;20026;-73
2022/09/13 05:35:43;;;;;;;1999.90;999.90;;;15.80;99.90;;;;;;5311007;27;20023;-74
2022/09/13 05:38:13;;;;;;;1999.90;999.90;;;16.00;99.90;;;;;;5309806;27;20023;-73
2022/09/13 05:40:45;;;;;;;1999.90;999.90;;;16.30;99.90;;;;;;5310537;27;20023;-73
2022/09/13 05:43:15;;;;;;;1999.90;999.90;;;16.30;99.90;;;;;;5310604;27;20024;-73
2022/09/13 05:45:46;;;;;;;1999.90;999.90;;;16.60;99.90;;;;;;5310301;27;20036;-72
2022/09/13 05:48:17;;;;;;;1999.90;999.90;;;17.40;99.90;;;;;;5310577;27;20023;-76
2022/09/13 05:50:48;;;;;;;1999.90;999.90;;;17.70;99.90;;;;;;5310021;27;20054;-75
2022/09/13 05:53:18;;;;;;;1999.90;999.90;;;17.80;99.90;;;;;;5309783;27;20034;-74
2022/09/13 05:55:49;;;;;;;1999.90;999.90;;;18.00;99.90;;;;;;5309286;27;20019;-74
2022/09/13 05:58:20;;;;;;;1999.90;999.90;;;18.30;99.90;;;;;;5309315;27;20099;-73
2022/09/13 06:00:55;;;;;;;1999.90;999.90;;;18.40;99.90;;;;;;5309152;27;20047;-74
2022/09/13 06:03:26;;;;;;;1999.90;999.90;;;18.60;99.90;;;;;;5284363;27;20497;-73
2022/09/13 06:05:58;;;;;;;1999.90;999.90;;;19.00;99.90;;;;;;5270789;28;20032;-72
2022/09/13 06:08:30;;;;;;;1999.90;999.90;;;19.40;99.90;;;;;;5270767;28;20649;-74
2022/09/13 06:11:06;;;;;;;1999.90;999.90;;;19.30;99.90;;;;;;5271375;28;20024;-73
2022/09/13 06:13:37;;;;;;;1999.90;999.90;;;19.90;99.90;;;;;;5271633;28;20079;-75
2022/09/13 06:16:10;;;;;;;1999.90;999.90;;;20.20;99.90;;;;;;5271623;28;20063;-75
2022/09/13 06:18:41;;;;;;;1999.90;999.90;;;20.30;99.90;;;;;;5271480;28;20036;-72
2022/09/13 06:21:16;;;;;;;1999.90;999.90;;;20.40;99.90;;;;;;5270786;28;20031;-74
2022/09/13 06:23:52;;;;;;;1999.90;999.90;;;20.70;99.90;;;;;;5270308;28;20020;-72
2022/09/13 06:26:25;;;;;;;1999.90;999.90;;;20.70;99.90;;;;;;5270548;28;20039;-74
2022/09/13 06:28:57;;;;;;;1999.90;999.90;;;21.00;99.90;;;;;;5270397;28;20383;-73
2022/09/13 06:31:28;;;;;;;1999.90;999.90;;;20.90;99.90;;;;;;5270312;28;20063;-74
2022/09/13 06:34:01;;;;;;;1999.90;999.90;;;21.10;99.90;;;;;;5270681;28;20051;-72
2022/09/13 06:36:32;;;;;;;1999.90;999.90;;;21.00;99.90;;;;;;5270320;28;20047;-72
2022/09/13 06:39:05;;;;;;;1999.90;999.90;;;21.00;99.90;;;;;;5270548;28;20032;-72
2022/09/13 06:41:37;;;;;;;1999.90;999.90;;;21.10;99.90;;;;;;5285993;28;20085;-72
2022/09/13 06:44:08;;;;;;;1999.90;999.90;;;21.30;99.90;;;;;;5291245;28;20078;-72
2022/09/13 06:46:39;;;;;;;1999.90;999.90;;;21.40;99.90;;;;;;5275571;28;20043;-74
2022/09/13 06:49:10;;;;;;;1999.90;999.90;;;21.40;99.90;;;;;;5270391;28;20020;-72
2022/09/13 06:51:41;;;;;;;1999.90;999.90;;;21.60;99.90;;;;;;5270382;28;20036;-72
2022/09/13 06:54:12;;;;;;;1999.90;999.90;;;21.60;99.90;;;;;;5270430;28;20028;-72
2022/09/13 06:56:42;;;;;;;1999.90;999.90;;;21.50;99.90;;;;;;5270261;28;20036;-72
2022/09/13 06:59:13;;;;;;;1999.90;999.90;;;21.70;99.90;;;;;;5270052;28;20119;-71
2022/09/13 07:01:45;;;;;;;1999.90;999.90;;;21.60;99.90;;;;;;5269945;28;20039;-72
2022/09/13 07:04:21;;;;;;;1999.90;999.90;;;21.70;99.90;;;;;;5269951;28;20367;-72
2022/09/13 07:06:52;;;;;;;1999.90;999.90;;;21.80;99.90;;;;;;5269988;28;20085;-72
2022/09/13 07:09:23;;;;;;;1999.90;999.90;;;21.90;99.90;;;;;;5269725;28;20027;-72
2022/09/13 07:11:56;;;;;;;1999.90;999.90;;;22.10;99.90;;;;;;5269923;28;20028;-72
2022/09/13 07:14:28;;;;;;;1999.90;999.90;;;22.20;99.90;;;;;;5269342;28;20043;-71
2022/09/13 07:16:59;;;;;;;1999.90;999.90;;;22.10;99.90;;;;;;5269468;28;20039;-72
2022/09/13 07:19:30;;;;;;;1999.90;999.90;;;22.20;99.90;;;;;;5269615;28;20035;-71
2022/09/13 07:22:01;;;;;;;1999.90;999.90;;;22.60;99.90;;;;;;5269601;28;20024;-72
2022/09/13 07:24:31;;;;;;;1999.90;999.90;;;22.40;99.90;;;;;;5269630;28;20040;-72
2022/09/13 07:27:02;;;;;;;1999.90;999.90;;;22.40;99.90;;;;;;5269605;28;20028;-72
2022/09/13 07:29:33;;;;;;;1999.90;999.90;;;22.70;99.90;;;;;;5269463;28;20016;-72
2022/09/13 07:32:04;;;;;;;1999.90;999.90;;;22.80;99.90;;;;;;5269186;28;20056;-72
2022/09/13 07:34:35;;;;;;;1999.90;999.90;;;23.00;99.90;;;;;;5269358;28;20016;-73
2022/09/13 07:37:05;;;;;;;1999.90;999.90;;;23.10;99.90;;;;;;5269508;28;20024;-72
2022/09/13 07:39:36;;;;;;;1999.90;999.90;;;22.80;99.90;;;;;;5269327;28;20375;-72
2022/09/13 07:42:07;;;;;;;1999.90;999.90;;;23.10;99.90;;;;;;5268991;28;20043;-72
2022/09/13 07:44:38;;;;;;;1999.90;999.90;;;23.20;99.90;;;;;;5268104;28;20563;-72
2022/09/13 07:47:08;;;;;;;1999.90;999.90;;;23.00;99.90;;;;;;5269199;28;20020;-73
2022/09/13 07:49:39;;;;;;;1999.90;999.90;;;23.10;99.90;;;;;;5269263;28;20025;-72
2022/09/13 07:52:10;;;;;;;1999.90;999.90;;;23.20;99.90;;;;;;5269197;28;20024;-72
2022/09/13 07:54:40;;;;;;;1999.90;999.90;;;22.80;99.90;;;;;;5269030;28;20027;-72
2022/09/13 07:57:11;;;;;;;1999.90;999.90;;;22.70;99.90;;;;;;5269088;28;20039;-72
2022/09/13 07:59:42;;;;;;;1999.90;999.90;;;22.30;99.90;;;;;;5269080;28;20024;-72
2022/09/13 08:02:14;;;;;;;1999.90;999.90;;;22.70;99.90;;;;;;5268844;28;20056;-72
2022/09/13 08:04:45;;;;;;;1999.90;999.90;;;22.80;99.90;;;;;;5268931;28;20105;-72
2022/09/13 08:07:16;;;;;;;1999.90;999.90;;;22.20;99.90;;;;;;5268575;28;20460;-72
2022/09/13 08:09:47;;;;;;;1999.90;999.90;;;22.00;99.90;;;;;;5268617;28;20035;-72
2022/09/13 08:12:17;;;;;;;1999.90;999.90;;;22.10;99.90;;;;;;5268526;28;20028;-71
2022/09/13 08:14:48;;;;;;;1999.90;999.90;;;22.30;99.90;;;;;;5268406;28;20500;-72
2022/09/13 08:17:19;;;;;;;1999.90;999.90;;;22.30;99.90;;;;;;5267954;28;20153;-72
2022/09/13 08:19:50;;;;;;;1999.90;999.90;;;22.90;99.90;;;;;;5268527;28;20038;-72
2022/09/13 08:22:20;;;;;;;1999.90;999.90;;;23.10;99.90;;;;;;5268336;28;20021;-72
2022/09/13 08:24:51;;;;;;;1999.90;999.90;;;23.40;99.90;;;;;;5268359;28;20054;-72
2022/09/13 08:27:22;;;;;;;1999.90;999.90;;;23.80;99.90;;;;;;5268119;28;20026;-72
2022/09/13 08:29:52;;;;;;;1999.90;999.90;;;23.10;99.90;;;;;;5267352;28;20028;-72
2022/09/13 08:32:23;;;;;;;1999.90;999.90;;;23.20;99.90;;;;;;5267918;28;20016;-72
2022/09/13 08:34:54;;;;;;;1999.90;999.90;;;23.40;99.90;;;;;;5268248;28;20472;-71
2022/09/13 08:37:25;;;;;;;1999.90;999.90;;;23.50;99.90;;;;;;5268322;28;20562;-72
2022/09/13 08:39:56;;;;;;;1999.90;999.90;;;23.70;99.90;;;;;;5268403;28;20059;-72
2022/09/13 08:42:50;;;;;;;1999.90;999.90;;;23.60;99.90;;;;;;5267832;28;20066;-71
2022/09/13 08:45:22;;;;;;;1999.90;999.90;;;23.90;99.90;;;;;;5267829;28;20044;-71
2022/09/13 08:48:00;;;;;;;1999.90;999.90;;;24.00;99.90;;;;;;5268006;28;20050;-72
2022/09/13 08:50:35;;;;;;;1999.90;999.90;;;23.00;99.90;;;;;;5268187;28;20024;-72
2022/09/13 08:53:18;;;;;;;1999.90;999.90;;;23.90;99.90;;;;;;5268099;28;20387;-72
2022/09/13 08:56:09;;;;;;;1999.90;999.90;;;23.80;99.90;;;;;;5268188;28;20376;-71
2022/09/13 08:58:52;;;;;;;1999.90;999.90;;;23.90;99.90;;;;;;5267798;28;20356;-72
2022/09/13 09:01:36;;;;;;;1999.90;999.90;;;24.00;99.90;;;;;;5267880;28;20028;-72
2022/09/13 09:04:32;;;;;;;1999.90;999.90;;;24.10;99.90;;;;;;5267861;28;20028;-72
2022/09/13 09:07:12;;;;;;;1999.90;999.90;;;24.40;99.90;;;;;;5268041;28;20085;-72
2022/09/13 09:10:19;;;;;;;1999.90;999.90;;;24.10;99.90;;;;;;5268150;28;20052;-72
2022/09/13 09:12:52;;;;;;;1999.90;999.90;;;23.90;99.90;;;;;;5267663;28;20032;-72
2022/09/13 09:15:40;;;;;;;1999.90;999.90;;;23.90;99.90;;;;;;5268172;28;20114;-72
2022/09/13 09:18:28;;;;;;;1999.90;999.90;;;24.40;99.90;;;;;;5267759;28;20020;-72
2022/09/13 09:21:00;;;;;;;1999.90;999.90;;;23.90;99.90;;;;;;5267741;28;20399;-72
2022/09/13 09:23:37;;;;;;;1999.90;999.90;;;23.80;99.90;;;;;;5267592;28;20028;-72
2022/09/13 09:26:18;;;;;;;1999.90;999.90;;;24.40;99.90;;;;;;5267658;28;20065;-72
2022/09/13 09:28:55;;;;;;;1999.90;999.90;;;24.60;99.90;;;;;;5267988;28;20542;-72
2022/09/13 09:31:47;;;;;;;1999.90;999.90;;;24.50;99.90;;;;;;5267497;28;20111;-72
2022/09/13 09:35:04;;;;;;;1999.90;999.90;;;24.80;99.90;;;;;;5266350;28;20495;-72
2022/09/13 09:37:36;;;;;;;1999.90;999.90;;;25.00;99.90;;;;;;5266221;28;20036;-71
2022/09/13 09:40:12;;;;;;;1999.90;999.90;;;25.00;99.90;;;;;;5266364;28;20111;-72
2022/09/13 09:42:46;;;;;;;1999.90;999.90;;;25.00;99.90;;;;;;5271679;28;20032;-72
2022/09/13 09:45:29;;;;;;;1999.90;999.90;;;24.90;99.90;;;;;;5271533;28;20058;-72
2022/09/13 09:48:08;;;;;;;1999.90;999.90;;;25.00;99.90;;;;;;5271797;28;20028;-72
2022/09/13 09:50:46;;;;;;;1999.90;999.90;;;24.70;99.90;;;;;;5271641;28;20020;-72
2022/09/13 09:53:30;;;;;;;1999.90;999.90;;;25.10;99.90;;;;;;5271309;28;20527;-72
2022/09/13 09:56:19;;;;;;;1999.90;999.90;;;25.30;99.90;;;;;;5271316;28;20661;-72
2022/09/13 09:58:52;;;;;;;1999.90;999.90;;;25.50;99.90;;;;;;5271495;28;20077;-73
2022/09/13 10:01:37;;;;;;;1999.90;999.90;;;25.70;99.90;;;;;;5271126;28;20039;-71
2022/09/13 10:04:20;;;;;;;1999.90;999.90;;;24.80;99.90;;;;;;5271371;28;20036;-72
2022/09/13 10:07:08;;;;;;;1999.90;999.90;;;24.10;99.90;;;;;;5271445;28;20024;-72
2022/09/13 10:09:57;;;;;;;1999.90;999.90;;;24.10;99.90;;;;;;5271333;28;20379;-71
2022/09/13 10:12:32;;;;;;;1999.90;999.90;;;24.20;99.90;;;;;;5270975;28;20036;-72
2022/09/13 10:15:14;;;;;;;1999.90;999.90;;;23.80;99.90;;;;;;5270670;28;20052;-71
2022/09/13 10:18:13;;;;;;;1999.90;999.90;;;23.70;99.90;;;;;;5271054;28;20024;-72
2022/09/13 10:21:02;;;;;;;1999.90;999.90;;;23.40;99.90;;;;;;5271083;28;20020;-72
2022/09/13 10:23:35;;;;;;;1999.90;999.90;;;23.40;99.90;;;;;;5271009;28;20076;-72
2022/09/13 10:26:09;;;;;;;1999.90;999.90;;;24.40;99.90;;;;;;5270925;28;20039;-72
2022/09/13 10:29:05;;;;;;;1999.90;999.90;;;24.80;99.90;;;;;;5270919;28;20027;-71
2022/09/13 10:31:39;;;;;;;1999.90;999.90;;;25.20;99.90;;;;;;5270564;28;20020;-72
2022/09/13 10:34:19;;;;;;;1999.90;999.90;;;25.10;99.90;;;;;;5270653;28;20365;-72
2022/09/13 10:37:02;;;;;;;1999.90;999.90;;;25.40;99.90;;;;;;5269131;28;20032;-72
2022/09/13 10:39:35;;;;;;;1999.90;999.90;;;25.10;99.90;;;;;;5269151;28;20120;-71
2022/09/13 10:42:08;;;;;;;1999.90;999.90;;;25.10;99.90;;;;;;5270179;28;20028;-72
2022/09/13 10:45:02;;;;;;;1999.90;999.90;;;25.00;99.90;;;;;;5270156;28;20634;-72
2022/09/13 10:47:47;;;;;;;1999.90;999.90;;;25.60;99.90;;;;;;5269957;28;20036;-72
2022/09/13 10:50:23;;;;;;;1999.90;999.90;;;25.50;99.90;;;;;;5270248;28;20032;-73
2022/09/13 10:52:58;;;;;;;1999.90;999.90;;;25.70;99.90;;;;;;5269724;28;20535;-72
2022/09/13 10:55:34;;;;;;;1999.90;999.90;;;26.00;99.90;;;;;;5270278;28;20039;-72
2022/09/13 10:58:05;;;;;;;1999.90;999.90;;;25.70;99.90;;;;;;5270102;28;20108;-72
2022/09/13 11:00:42;;;;;;;1999.90;999.90;;;25.90;99.90;;;;;;5268800;28;20063;-72
2022/09/13 11:03:31;;;;;;;1999.90;999.90;;;26.20;99.90;;;;;;5269930;28;20028;-72
2022/09/13 11:06:19;;;;;;;1999.90;999.90;;;25.60;99.90;;;;;;5268672;28;20089;-72
2022/09/13 11:09:08;;;;;;;1999.90;999.90;;;26.10;99.90;;;;;;5269991;28;20050;-72
2022/09/13 11:11:48;;;;;;;1999.90;999.90;;;26.40;99.90;;;;;;5270065;28;20020;-72
2022/09/13 11:14:50;;;;;;;1999.90;999.90;;;26.50;99.90;;;;;;5269603;28;20043;-71
2022/09/13 11:17:37;;;;;;;1999.90;999.90;;;26.30;99.90;;;;;;5269810;28;20464;-72
2022/09/13 11:20:16;;;;;;;1999.90;999.90;;;25.90;99.90;;;;;;5269743;28;20043;-72
2022/09/13 11:23:07;;;;;;;1999.90;999.90;;;25.70;99.90;;;;;;5269643;28;20051;-72
2022/09/13 11:25:53;;;;;;;1999.90;999.90;;;25.40;99.90;;;;;;5269595;28;20032;-72
2022/09/13 11:28:50;;;;;;;1999.90;999.90;;;25.90;99.90;;;;;;5269684;28;20028;-72
2022/09/13 11:31:34;;;;;;;1999.90;999.90;;;25.90;99.90;;;;;;5267328;28;20076;-72
2022/09/13 11:34:18;;;;;;;1999.90;999.90;;;25.30;99.90;;;;;;5269415;28;20055;-73
2022/09/13 11:36:56;;;;;;;1999.90;999.90;;;24.60;99.90;;;;;;5269821;28;20038;-73
2022/09/13 11:39:31;;;;;;;1999.90;999.90;;;24.30;99.90;;;;;;5269641;28;20031;-72
2022/09/13 11:42:15;;;;;;;1999.90;999.90;;;24.20;99.90;;;;;;5269307;28;20375;-71
2022/09/13 11:45:10;;;;;;;1999.90;999.90;;;24.30;99.90;;;;;;5269318;28;20055;-72
2022/09/13 11:47:59;;;;;;;1999.90;999.90;;;24.30;99.90;;;;;;5269283;28;20364;-73
2022/09/13 11:50:53;;;;;;;1999.90;999.90;;;24.70;99.90;;;;;;5269384;28;20028;-74
2022/09/13 11:53:45;;;;;;;1999.90;999.90;;;24.50;99.90;;;;;;5269194;28;20055;-72
2022/09/13 11:56:31;;;;;;;1999.90;999.90;;;24.40;99.90;;;;;;5269091;28;20032;-72
2022/09/13 11:59:28;;;;;;;1999.90;999.90;;;25.40;99.90;;;;;;5269007;28;20026;-72
2022/09/13 12:02:02;;;;;;;1999.90;999.90;;;24.70;99.90;;;;;;5268852;28;20161;-72
2022/09/13 12:04:43;;;;;;;1999.90;999.90;;;24.60;99.90;;;;;;5267856;28;20047;-72
2022/09/13 12:07:24;;;;;;;1999.90;999.90;;;25.60;99.90;;;;;;5268842;28;20050;-72
2022/09/13 12:10:02;;;;;;;1999.90;999.90;;;26.00;99.90;;;;;;5268653;28;20032;-72
2022/09/13 12:12:35;;;;;;;1999.90;999.90;;;26.30;99.90;;;;;;5268629;28;20028;-72
2022/09/13 12:15:16;;;;;;;1999.90;999.90;;;26.30;99.90;;;;;;5268948;28;20059;-72
2022/09/13 12:17:55;;;;;;;1999.90;999.90;;;25.80;99.90;;;;;;5268732;28;20016;-73
2022/09/13 12:20:38;;;;;;;1999.90;999.90;;;26.30;99.90;;;;;;5268552;28;20028;-72
2022/09/13 12:23:28;;;;;;;1999.90;999.90;;;26.30;99.90;;;;;;5268852;28;20028;-74
2022/09/13 12:26:25;;;;;;;1999.90;999.90;;;26.60;99.90;;;;;;5268406;28;20036;-72
2022/09/13 12:29:01;;;;;;;1999.90;999.90;;;26.20;99.90;;;;;;5268476;28;20020;-72
2022/09/13 12:31:32;;;;;;;1999.90;999.90;;;26.20;99.90;;;;;;5268278;28;20097;-72
2022/09/13 12:34:08;;;;;;;1999.90;999.90;;;25.20;99.90;;;;;;5268102;28;20036;-71
2022/09/13 12:37:07;;;;;;;1999.90;999.90;;;24.60;99.90;;;;;;5268339;28;20035;-72
2022/09/13 12:40:11;;;;;;;1999.90;999.90;;;25.30;99.90;;;;;;5268400;28;20027;-73
2022/09/13 12:43:12;;;;;;;1999.90;999.90;;;26.00;99.90;;;;;;5268220;28;20411;-72
2022/09/13 12:45:50;;;;;;;1999.90;999.90;;;25.90;99.90;;;;;;5268031;28;20092;-72
2022/09/13 12:48:30;;;;;;;1999.90;999.90;;;25.60;99.90;;;;;;5268238;28;20458;-74
2022/09/13 12:51:22;;;;;;;1999.90;999.90;;;25.70;99.90;;;;;;5268508;28;20034;-72